今朝の羽田(2017/04/22)

JAL36/JA701J(B772)

QFA25/VH-OEI(B744)

ANA968/JA802A(B788)

ANA8554/JA817A(B788)

HKE624/B-LEC(A321)

ANA880/JA873A(B789) R2-D2 c/s

JAL34/JA703J(B772)

ANA844/JA879A(B789)

ANA850/JA887A(B789)

*TTW217/B-50016(A320)

ANA822/JA616A(B763)

THA682/HS-TGG(B744)

SIA638/9V-SWU(B77W)

*N2480H(GLF5)

*JAL4691/JA348J(B738)

ANA856/JA890A(B789)

*APJ859/JA808P(A320)

ANA204/JA790A(B77W)

JAL70/JA825J(B788)

*AAR177/HL7741(A333)

*HKE625/B-LEC(A321)

BAW7/G-STBA(B77W)

RJTT 212000Z 02007KT 8000 FEW020 BKN040 15/13 Q1005 NOSIG RMK 1CU020 7SC040 A2970

RJTT 212100Z 04008KT 9000 FEW007 BKN030 14/13 Q1006 NOSIG RMK 1ST007 7SC030 A2971

RJTT 212200Z 04007KT 9999 FEW008 BKN040 15/11 Q1006 NOSIG RMK 1ST008 7SC040 A2973

今朝の羽田は曇っています。